Time;durP1;ratioP1;P1;durP2;ratioP2;P2;SDS_P1;SDS_P2;PMS_P1;PMS_P2;Temp;Humidity;BMP_temperature;BMP_pressure;BME280_temperature;BME280_humidity;BME280_pressure;Samples;Min_cycle;Max_cycle;Signal;HPM_P1;HPM_P2
2023/11/17 00:01:07;;;;;;;47.97;26.37;;;;;;;2.08;68.85;100755.64;125304;1103;102611;-81
2023/11/17 00:03:50;;;;;;;50.50;26.20;;;;;;;2.11;69.14;100759.34;124816;1105;104271;-81
2023/11/17 00:06:21;;;;;;;53.53;28.17;;;;;;;2.15;69.40;100758.80;124642;1105;102039;-81
2023/11/17 00:08:54;;;;;;;49.37;26.77;;;;;;;2.16;69.56;100763.16;124714;1105;104185;-79
2023/11/17 00:11:25;;;;;;;54.40;26.53;;;;;;;2.20;69.31;100763.39;124776;1105;104188;-81
2023/11/17 00:13:57;;;;;;;51.00;26.10;;;;;;;2.20;69.44;100763.39;124728;1105;102729;-80
2023/11/17 00:16:28;;;;;;;50.45;25.15;;;;;;;2.17;69.59;100753.73;124714;1105;104182;-81
2023/11/17 00:19:01;;;;;;;45.70;24.50;;;;;;;2.15;69.33;100753.61;124701;1105;101854;-79
2023/11/17 00:21:34;;;;;;;48.87;25.00;;;;;;;2.14;69.46;100745.73;124719;1105;104211;-80
2023/11/17 00:24:08;;;;;;;44.73;23.90;;;;;;;2.11;69.50;100746.40;124708;1105;101948;-80
2023/11/17 00:26:40;;;;;;;47.10;24.63;;;;;;;2.08;69.95;100743.59;124748;1105;104288;-80
2023/11/17 00:29:13;;;;;;;44.43;23.73;;;;;;;2.06;69.84;100739.11;124672;1105;102134;-80
2023/11/17 00:31:44;;;;;;;44.63;24.63;;;;;;;2.05;70.29;100743.36;124679;1105;104224;-81
2023/11/17 00:34:15;;;;;;;47.00;24.90;;;;;;;2.07;70.06;100741.81;124748;1105;104262;-80
2023/11/17 00:36:47;;;;;;;52.63;28.93;;;;;;;2.08;69.66;100742.70;124717;1105;104210;-83
2023/11/17 00:39:21;;;;;;;53.50;30.80;;;;;;;2.08;70.42;100740.11;124641;1105;104230;-81
2023/11/17 00:41:52;;;;;;;60.38;32.83;;;;;;;2.10;69.77;100747.21;124717;1105;101922;-81
2023/11/17 00:44:23;;;;;;;49.63;29.87;;;;;;;2.07;70.06;100741.81;124777;1103;104323;-80
2023/11/17 00:46:55;;;;;;;56.87;32.97;;;;;;;2.02;70.29;100740.55;124791;1106;102081;-81
2023/11/17 00:49:26;;;;;;;57.53;34.83;;;;;;;2.02;70.04;100743.13;124746;1105;103036;-81
2023/11/17 00:51:58;;;;;;;58.53;36.17;;;;;;;2.01;70.38;100743.02;124800;1105;102354;-81
2023/11/17 00:54:31;;;;;;;64.30;40.30;;;;;;;2.02;70.46;100747.42;124751;1103;104236;-80
2023/11/17 00:57:03;;;;;;;62.97;38.07;;;;;;;2.00;70.09;100757.66;124757;1104;103414;-80
2023/11/17 00:59:34;;;;;;;65.57;42.27;;;;;;;1.96;70.21;100759.13;124619;1105;102033;-80
2023/11/17 01:02:06;;;;;;;69.80;43.55;;;;;;;1.96;70.83;100747.86;124799;1105;104185;-80
2023/11/17 01:04:38;;;;;;;69.05;43.65;;;;;;;1.93;70.26;100737.27;124720;1104;104316;-81
2023/11/17 01:07:10;;;;;;;65.23;43.23;;;;;;;1.86;70.40;100730.76;124704;1105;104210;-81
2023/11/17 01:09:43;;;;;;;71.17;46.87;;;;;;;1.80;70.59;100718.25;124740;1105;104224;-81
2023/11/17 01:12:14;;;;;;;73.25;48.52;;;;;;;1.80;70.74;100714.77;124768;1104;104147;-81
2023/11/17 01:14:47;;;;;;;79.00;50.23;;;;;;;1.76;70.28;100697.21;124639;1105;102090;-81
2023/11/17 01:17:18;;;;;;;79.30;52.05;;;;;;;1.77;71.04;100699.91;124690;1105;104178;-82
2023/11/17 01:19:50;;;;;;;69.80;44.27;;;;;;;1.81;70.75;100695.89;125103;1105;104220;-81
2023/11/17 01:22:22;;;;;;;68.13;43.70;;;;;;;1.81;70.92;100690.71;124657;1105;102496;-82
2023/11/17 01:24:53;;;;;;;69.83;46.37;;;;;;;1.78;70.79;100683.61;124680;1105;101890;-81
2023/11/17 01:27:25;;;;;;;71.77;45.47;;;;;;;1.80;70.99;100689.79;124614;1104;102063;-81
2023/11/17 01:29:56;;;;;;;67.53;42.10;;;;;;;1.83;71.38;100696.00;124695;1105;104440;-81
2023/11/17 01:32:29;;;;;;;71.23;44.67;;;;;;;1.84;71.09;100697.78;124771;1105;104098;-82
2023/11/17 01:35:00;;;;;;;69.13;46.33;;;;;;;1.85;71.58;100690.12;124735;1105;101868;-81
2023/11/17 01:37:32;;;;;;;70.97;46.80;;;;;;;1.87;71.21;100682.48;124751;1105;102110;-82
2023/11/17 01:40:05;;;;;;;74.10;48.27;;;;;;;1.87;71.05;100677.30;124747;1105;101881;-82
2023/11/17 01:42:37;;;;;;;67.93;43.27;;;;;;;1.85;71.49;100679.78;124660;1104;104246;-81
2023/11/17 01:45:10;;;;;;;63.63;40.97;;;;;;;1.79;71.06;100682.84;124572;1105;104206;-81
2023/11/17 01:47:43;;;;;;;59.90;35.47;;;;;;;1.77;71.50;100680.91;124950;1105;104234;-82
2023/11/17 01:50:16;;;;;;;58.87;36.83;;;;;;;1.73;71.33;100682.38;124762;1105;102033;-81
2023/11/17 01:52:48;;;;;;;60.60;36.80;;;;;;;1.75;71.26;100685.97;124791;1105;101925;-83
2023/11/17 01:55:20;;;;;;;60.60;36.30;;;;;;;1.75;71.27;100685.97;124789;1104;102080;-81
2023/11/17 01:57:54;;;;;;;62.27;35.57;;;;;;;1.78;71.46;100683.61;124937;1105;101893;-82
2023/11/17 02:00:26;;;;;;;55.83;33.80;;;;;;;1.82;71.86;100676.97;124764;1105;101899;-82
2023/11/17 02:03:00;;;;;;;56.00;32.83;;;;;;;1.83;71.67;100665.84;124760;1106;102243;-81
2023/11/17 02:05:33;;;;;;;59.33;35.57;;;;;;;1.83;71.70;100668.42;124729;1105;102383;-81
2023/11/17 02:08:19;;;;;;;56.50;33.03;;;;;;;1.83;72.13;100667.54;124711;1105;102107;-81
2023/11/17 02:11:01;;;;;;;54.13;31.10;;;;;;;1.73;71.87;100669.45;124673;1105;104089;-80
2023/11/17 02:13:38;;;;;;;52.87;30.20;;;;;;;1.73;71.98;100671.11;124723;1105;104194;-81
2023/11/17 02:16:17;;;;;;;51.15;30.25;;;;;;;1.72;71.94;100659.88;124712;1105;104214;-81
2023/11/17 02:18:50;;;;;;;52.07;30.57;;;;;;;1.70;72.10;100658.88;124625;1104;102038;-81
2023/11/17 02:21:29;;;;;;;50.50;29.00;;;;;;;1.69;71.72;100646.72;124664;1105;104364;-82
2023/11/17 02:24:06;;;;;;;50.87;29.80;;;;;;;1.66;72.15;100640.42;124655;1105;104342;-80
2023/11/17 02:26:52;;;;;;;54.57;32.53;;;;;;;1.62;71.95;100636.69;124722;1105;102047;-81
2023/11/17 02:29:28;;;;;;;55.83;34.27;;;;;;;1.58;72.11;100634.69;124726;1105;101839;-82
2023/11/17 02:32:00;;;;;;;55.40;33.00;;;;;;;1.58;72.17;100634.69;124695;1105;102171;-82
2023/11/17 02:34:32;;;;;;;61.23;34.60;;;;;;;1.59;72.46;100637.39;124723;1104;102047;-82
2023/11/17 02:37:05;;;;;;;58.90;34.50;;;;;;;1.61;72.29;100637.50;124663;1105;104239;-82
2023/11/17 02:39:38;;;;;;;60.57;35.10;;;;;;;1.61;72.34;100642.67;124704;1105;104174;-83
2023/11/17 02:42:11;;;;;;;60.73;35.63;;;;;;;1.62;72.28;100634.11;124677;1105;102023;-83
2023/11/17 02:44:44;;;;;;;55.50;34.13;;;;;;;1.64;72.70;100634.22;124759;1105;101900;-82
2023/11/17 02:47:20;;;;;;;62.33;35.60;;;;;;;1.66;72.94;100630.97;124567;1104;104287;-82
2023/11/17 02:49:58;;;;;;;55.10;34.67;;;;;;;1.70;72.73;100620.06;124762;1105;104220;-82
2023/11/17 02:52:42;;;;;;;57.63;34.90;;;;;;;1.74;72.56;100608.24;124731;1105;102227;-82
2023/11/17 02:55:16;;;;;;;60.90;33.83;;;;;;;1.76;72.96;100604.99;124657;1105;104182;-82
2023/11/17 02:57:48;;;;;;;55.78;32.30;;;;;;;1.79;72.58;100615.56;124808;1105;104201;-83
2023/11/17 03:00:22;;;;;;;56.90;32.17;;;;;;;1.82;73.51;100624.33;124819;1105;104261;-83
2023/11/17 03:02:57;;;;;;;57.50;31.97;;;;;;;1.85;73.07;100616.78;124619;1105;102080;-83
2023/11/17 03:05:29;;;;;;;58.43;32.70;;;;;;;1.88;73.00;100610.13;124694;1105;104251;-81
2023/11/17 03:08:01;;;;;;;55.67;33.57;;;;;;;1.87;73.45;100610.02;124679;1105;104297;-82
2023/11/17 03:10:34;;;;;;;58.60;32.47;;;;;;;1.86;73.18;100601.37;124649;1105;104253;-82
2023/11/17 03:13:06;;;;;;;55.27;31.23;;;;;;;1.86;72.88;100600.48;124703;1105;102112;-82
2023/11/17 03:15:38;;;;;;;53.83;30.13;;;;;;;1.87;73.41;100602.26;124712;1105;104078;-82
2023/11/17 03:18:11;;;;;;;57.05;31.05;;;;;;;1.84;73.08;100596.86;124745;1105;104086;-82
2023/11/17 03:20:44;;;;;;;54.37;30.83;;;;;;;1.83;73.38;100585.63;124621;1105;104267;-81
2023/11/17 03:23:16;;;;;;;50.53;29.37;;;;;;;1.83;73.35;100576.97;124676;1105;104252;-81
2023/11/17 03:25:47;;;;;;;50.33;29.10;;;;;;;1.74;73.24;100566.85;124676;1105;102803;-81
2023/11/17 03:28:19;;;;;;;52.17;28.67;;;;;;;1.64;72.98;100570.47;124678;1105;104284;-81
2023/11/17 03:30:55;;;;;;;50.67;27.97;;;;;;;1.58;73.23;100577.78;124689;1105;104205;-81
2023/11/17 03:33:30;;;;;;;53.00;28.07;;;;;;;1.57;73.02;100576.90;124679;1105;102480;-82
2023/11/17 03:36:02;;;;;;;50.20;27.17;;;;;;;1.56;73.14;100571.61;124806;1105;104258;-82
2023/11/17 03:38:35;;;;;;;53.50;28.37;;;;;;;1.56;73.11;100576.78;124754;1105;104182;-81
2023/11/17 03:41:07;;;;;;;53.60;28.87;;;;;;;1.58;73.30;100580.38;124738;1105;101949;-81
2023/11/17 03:43:38;;;;;;;50.20;28.40;;;;;;;1.59;73.30;100574.39;124768;1105;101846;-81
2023/11/17 03:46:09;;;;;;;48.90;28.00;;;;;;;1.60;73.70;100576.20;124650;1105;101852;-82
2023/11/17 03:48:41;;;;;;;53.50;28.47;;;;;;;1.60;73.97;100571.91;124780;1105;102246;-81
2023/11/17 03:51:14;;;;;;;56.90;28.60;;;;;;;1.61;73.60;100578.90;124684;1105;104450;-81
2023/11/17 03:53:46;;;;;;;54.10;29.17;;;;;;;1.63;74.08;100591.94;124694;1105;102086;-81
2023/11/17 03:56:20;;;;;;;53.87;29.60;;;;;;;1.60;73.80;100591.72;124755;1105;104207;-82
2023/11/17 03:58:51;;;;;;;52.03;30.02;;;;;;;1.59;74.13;100597.67;124705;1105;104189;-83
2023/11/17 04:01:25;;;;;;;52.83;29.23;;;;;;;1.59;74.15;100595.08;124854;1105;104205;-82
2023/11/17 04:03:57;;;;;;;47.85;26.68;;;;;;;1.55;74.06;100598.25;124610;1105;104386;-81
2023/11/17 04:06:28;;;;;;;56.63;29.33;;;;;;;1.52;74.38;100598.91;124729;1105;104294;-83
2023/11/17 04:09:00;;;;;;;56.27;30.33;;;;;;;1.53;74.02;100589.49;124728;1105;104257;-83
2023/11/17 04:11:31;;;;;;;56.80;30.10;;;;;;;1.53;74.04;100594.66;124627;1105;102164;-83
2023/11/17 04:14:05;;;;;;;54.10;30.70;;;;;;;1.51;73.98;100603.97;124696;1105;102084;-83
2023/11/17 04:16:35;;;;;;;;;;;;;;;1.46;74.01;100602.75;125029;1105;104191;-82
2023/11/17 04:19:07;;;;;;;54.10;31.17;;;;;;;1.48;74.35;100616.68;124626;1105;102087;-82
2023/11/17 04:21:39;;;;;;;56.17;30.17;;;;;;;1.47;74.27;100631.30;124645;1105;104243;-83
2023/11/17 04:24:12;;;;;;;54.40;29.67;;;;;;;1.45;74.05;100635.48;124734;1105;104191;-81
2023/11/17 04:26:43;;;;;;;60.77;31.13;;;;;;;1.35;74.05;100633.87;125082;1105;104191;-83
2023/11/17 04:29:15;;;;;;;56.33;30.57;;;;;;;1.30;73.97;100622.30;124719;1103;102057;-82
2023/11/17 04:31:46;;;;;;;60.03;30.80;;;;;;;1.32;74.20;100623.30;124569;1105;102467;-81
2023/11/17 04:34:17;;;;;;;60.27;31.87;;;;;;;1.32;74.00;100617.23;124773;1105;101772;-82
2023/11/17 04:36:49;;;;;;;52.33;29.17;;;;;;;1.31;74.67;100612.84;124721;1105;104192;-82
2023/11/17 04:39:24;;;;;;;56.40;30.30;;;;;;;1.31;74.45;100613.77;124706;1105;104230;-80
2023/11/17 04:41:55;;;;;;;56.60;30.10;;;;;;;1.32;74.66;100599.14;124746;1104;102106;-81
2023/11/17 04:44:26;;;;;;;58.60;30.80;;;;;;;1.31;74.61;100590.50;124660;1104;104385;-82
2023/11/17 04:46:59;;;;;;;55.17;30.53;;;;;;;1.34;74.89;100589.80;124626;1105;104082;-80
2023/11/17 04:49:31;;;;;;;54.30;30.60;;;;;;;1.37;75.00;100580.61;124711;1105;104121;-81
2023/11/17 04:52:02;;;;;;;55.03;30.33;;;;;;;1.36;74.56;100578.80;124748;1105;101893;-82
2023/11/17 04:54:33;;;;;;;55.90;29.50;;;;;;;1.37;74.66;100596.13;124674;1104;102210;-82
2023/11/17 04:57:08;;;;;;;64.20;31.80;;;;;;;1.35;74.67;100600.25;124605;1105;104195;-81
2023/11/17 04:59:40;;;;;;;60.13;30.87;;;;;;;1.37;74.98;100596.13;124722;1105;104252;-82
2023/11/17 05:02:11;;;;;;;62.03;31.53;;;;;;;1.40;74.60;100598.94;125216;1105;104204;-80
2023/11/17 05:04:43;;;;;;;60.97;31.07;;;;;;;1.43;75.32;100600.83;125033;1105;102357;-82
2023/11/17 05:07:15;;;;;;;55.53;30.77;;;;;;;1.45;75.42;100586.34;125623;1105;102485;-82
2023/11/17 05:09:47;;;;;;;55.47;30.37;;;;;;;1.47;75.07;100596.80;125259;1105;104217;-82
2023/11/17 05:12:19;;;;;;;58.17;30.67;;;;;;;1.48;75.09;100607.26;125181;1105;104210;-81
2023/11/17 05:14:52;;;;;;;53.03;29.30;;;;;;;1.51;74.95;100619.48;125846;1105;102100;-79
2023/11/17 05:17:28;;;;;;;59.73;30.82;;;;;;;1.47;75.29;100613.20;125482;1105;102029;-81
2023/11/17 05:20:00;;;;;;;63.00;31.30;;;;;;;1.48;75.16;100616.68;124770;1105;104262;-80
2023/11/17 05:22:31;;;;;;;54.83;30.97;;;;;;;1.47;74.96;100620.96;124837;1105;104329;-78
2023/11/17 05:25:06;;;;;;;55.33;30.43;;;;;;;1.46;75.15;100613.09;125261;1105;102308;-82
2023/11/17 05:27:37;;;;;;;61.70;31.43;;;;;;;1.51;75.59;100606.56;125880;1096;102035;-80
2023/11/17 05:30:12;;;;;;;65.17;31.63;;;;;;;1.55;75.18;100614.66;125756;1105;101903;-80
2023/11/17 05:32:46;;;;;;;58.00;31.50;;;;;;;1.54;75.72;100627.48;125965;1105;101949;-79
2023/11/17 05:37:52;;;;;;;56.23;28.43;;;;;;;1.39;75.49;100642.78;125790;1103;101785;-81
2023/11/17 05:40:23;;;;;;;69.67;36.40;;;;;;;1.38;75.69;100634.09;124878;1103;102307;-79
2023/11/17 05:42:56;;;;;;;62.30;32.87;;;;;;;1.44;75.88;100641.42;124708;1105;103831;-78
2023/11/17 05:45:30;;;;;;;59.30;33.10;;;;;;;1.53;75.76;100641.22;124663;1105;104181;-78
2023/11/17 05:48:02;;;;;;;57.90;32.77;;;;;;;1.58;75.85;100638.16;124645;1105;104596;-81
2023/11/17 05:50:35;;;;;;;56.33;33.07;;;;;;;1.61;75.71;100633.22;124610;1105;104255;-79
2023/11/17 05:53:06;;;;;;;56.43;31.63;;;;;;;1.66;75.76;100633.55;124631;1105;102307;-82
2023/11/17 05:55:38;;;;;;;59.37;30.80;;;;;;;1.70;76.21;100624.32;124633;1105;102424;-84
2023/11/17 05:58:10;;;;;;;59.63;31.20;;;;;;;1.77;76.20;100622.30;125020;1105;102371;-82
2023/11/17 06:00:41;;;;;;;47.25;26.55;;;;;;;1.86;76.29;100621.19;124830;1106;101906;-79
2023/11/17 06:03:13;;;;;;;51.27;26.27;;;;;;;1.95;76.07;100622.73;124694;1104;102253;-80
2023/11/17 06:05:45;;;;;;;47.50;25.93;;;;;;;2.05;76.26;100628.58;124750;1104;104217;-79
2023/11/17 06:08:16;;;;;;;47.23;24.53;;;;;;;2.11;76.31;100632.49;124692;1105;102086;-80
2023/11/17 06:10:48;;;;;;;52.80;25.65;;;;;;;2.17;76.57;100629.45;124669;1105;104261;-79
2023/11/17 06:13:20;;;;;;;51.83;26.17;;;;;;;2.24;76.20;100630.78;124670;1105;102829;-77
2023/11/17 06:15:52;;;;;;;48.33;25.87;;;;;;;2.31;76.65;100620.08;124608;1105;104198;-79
2023/11/17 06:18:24;;;;;;;53.00;25.03;;;;;;;2.36;76.50;100623.87;124642;1105;103703;-78
2023/11/17 06:20:56;;;;;;;47.47;25.30;;;;;;;2.40;75.98;100617.21;124640;1105;102640;-77
2023/11/17 06:23:30;;;;;;;51.87;25.27;;;;;;;2.42;76.59;100613.06;124717;1105;104274;-81
2023/11/17 06:26:02;;;;;;;43.80;23.83;;;;;;;2.43;76.05;100604.48;124730;1104;102638;-81
2023/11/17 06:28:33;;;;;;;51.00;25.57;;;;;;;2.42;76.30;100611.36;124720;1105;102281;-80
2023/11/17 06:31:08;;;;;;;52.40;25.43;;;;;;;2.45;76.29;100616.76;124737;1106;102576;-81
2023/11/17 06:33:39;;;;;;;50.50;24.53;;;;;;;2.51;76.82;100616.30;124738;1104;102540;-79
2023/11/17 06:36:13;;;;;;;50.73;26.23;;;;;;;2.60;76.25;100611.76;124764;1105;104307;-79
2023/11/17 06:38:46;;;;;;;51.27;26.70;;;;;;;2.64;76.82;100600.79;124457;1105;102042;-76
2023/11/17 06:41:20;;;;;;;52.77;28.27;;;;;;;2.73;77.05;100607.39;124583;1105;102054;-79
2023/11/17 06:43:52;;;;;;;53.13;28.55;;;;;;;2.80;76.25;100613.09;124761;1105;104182;-80
2023/11/17 06:46:33;;;;;;;53.40;28.27;;;;;;;2.90;76.60;100605.95;120823;1105;10001874;-79
2023/11/17 06:49:05;;;;;;;55.40;28.37;;;;;;;2.98;76.95;100604.80;124531;1105;102514;-75
2023/11/17 06:51:39;;;;;;;54.40;29.67;;;;;;;3.04;77.29;100589.66;124473;1105;102042;-77
2023/11/17 06:54:13;;;;;;;44.53;24.85;;;;;;;3.13;76.83;100592.87;124750;1105;104233;-77
2023/11/17 06:56:43;;;;;;;;;;;;;;;3.22;77.68;100588.27;124706;1104;102466;-82
2023/11/17 06:59:19;;;;;;;48.53;25.27;;;;;;;3.29;76.83;100587.00;124796;1105;102410;-81
2023/11/17 07:01:58;;;;;;;;;;;;;;;3.35;76.86;100586.48;125029;1105;103413;-85
2023/11/17 07:04:32;;;;;;;48.07;26.27;;;;;;;3.39;77.12;100586.79;124636;1105;103327;-80
2023/11/17 07:07:04;;;;;;;45.92;24.30;;;;;;;3.46;76.83;100582.92;124936;1105;103016;-76
2023/11/17 07:09:38;;;;;;;52.87;25.43;;;;;;;3.52;77.02;100580.73;124814;1105;103533;-79
2023/11/17 07:12:12;;;;;;;51.67;26.97;;;;;;;3.56;77.25;100582.70;124795;1106;102224;-78
2023/11/17 07:14:59;;;;;;;51.57;27.37;;;;;;;3.60;77.30;100578.64;124760;1105;104288;-80
2023/11/17 07:17:31;;;;;;;54.97;27.50;;;;;;;3.69;77.14;100574.01;124853;1105;103043;-77
2023/11/17 07:20:11;;;;;;;46.17;26.17;;;;;;;3.81;77.28;100578.22;124839;1105;104222;-79
2023/11/17 07:22:46;;;;;;;52.47;27.10;;;;;;;3.88;77.40;100581.30;124747;1105;104250;-79
2023/11/17 07:25:22;;;;;;;49.35;26.00;;;;;;;3.92;76.90;100575.48;124787;1105;103080;-80
2023/11/17 07:28:06;;;;;;;49.98;25.27;;;;;;;3.96;76.95;100577.48;124867;1105;104201;-79
2023/11/17 07:30:42;;;;;;;44.27;24.63;;;;;;;3.99;77.25;100581.06;124670;1106;102734;-78
2023/11/17 07:33:16;;;;;;;44.30;22.93;;;;;;;4.03;77.16;100572.67;124634;1105;101933;-78
2023/11/17 07:35:46;;;;;;;;;;;;;;;4.04;77.05;100577.97;124730;1105;102596;-78
2023/11/17 07:38:22;;;;;;;42.17;22.27;;;;;;;4.05;77.00;100584.97;124625;1105;104258;-80
2023/11/17 07:40:54;;;;;;;41.35;21.70;;;;;;;4.05;77.22;100576.26;124801;1105;102842;-77
2023/11/17 07:43:27;;;;;;;47.80;23.07;;;;;;;4.06;77.13;100583.26;124641;1105;102235;-78
2023/11/17 07:45:59;;;;;;;45.07;22.67;;;;;;;4.07;77.21;100572.08;116071;1105;10001857;-78
2023/11/17 07:48:37;;;;;;;44.00;24.07;;;;;;;4.06;76.82;100578.06;124751;1105;103046;-79
2023/11/17 07:55:18;;;;;;;45.60;22.13;;;;;;;3.99;77.16;100578.47;125102;1106;102499;-79
2023/11/17 07:58:13;;;;;;;45.70;23.77;;;;;;;3.93;76.71;100590.27;125513;1105;102366;-78
2023/11/17 08:00:51;;;;;;;45.57;23.47;;;;;;;3.88;76.60;100581.30;124799;1105;103018;-80
2023/11/17 08:03:23;;;;;;;43.90;23.33;;;;;;;3.85;76.72;100574.99;124605;1105;103118;-81
2023/11/17 08:05:57;;;;;;;47.17;23.60;;;;;;;3.86;76.52;100576.80;124605;1105;103122;-77
2023/11/17 08:08:32;;;;;;;43.87;23.53;;;;;;;3.87;76.63;100579.49;124502;1105;103819;-81
2023/11/17 08:11:07;;;;;;;47.07;23.50;;;;;;;3.88;76.91;100580.38;126052;1104;102604;-80
2023/11/17 08:13:43;;;;;;;44.70;22.93;;;;;;;3.92;77.17;100575.48;125454;1105;102208;-78
2023/11/17 08:16:17;;;;;;;45.57;24.43;;;;;;;3.98;76.67;100566.30;124626;1105;102959;-80
2023/11/17 08:19:03;;;;;;;46.93;24.90;;;;;;;4.14;76.51;100559.58;124816;1105;104326;-80
2023/11/17 08:21:34;;;;;;;45.00;24.03;;;;;;;4.27;76.79;100552.52;125374;1105;104057;-77
2023/11/17 08:24:12;;;;;;;44.03;22.10;;;;;;;4.38;76.76;100551.50;125415;1105;102760;-80
2023/11/17 08:27:05;;;;;;;42.23;20.80;;;;;;;4.48;76.79;100552.95;125444;1105;103155;-78
2023/11/17 08:29:37;;;;;;;42.47;20.23;;;;;;;4.60;76.81;100538.09;125435;1105;103012;-78
2023/11/17 08:32:12;;;;;;;38.03;20.90;;;;;;;4.72;76.62;100544.83;125421;1105;105106;-76
2023/11/17 08:34:47;;;;;;;39.63;20.00;;;;;;;4.85;77.40;100542.16;124804;1105;102985;-80
2023/11/17 08:37:20;;;;;;;38.77;19.37;;;;;;;4.99;76.69;100548.19;124760;1105;104254;-79
2023/11/17 08:39:52;;;;;;;37.43;19.43;;;;;;;5.11;76.86;100545.38;124677;1105;111104;-76
2023/11/17 08:42:28;;;;;;;37.67;19.10;;;;;;;5.19;76.92;100532.03;124664;1105;104232;-78
2023/11/17 08:45:07;;;;;;;35.50;17.27;;;;;;;5.33;76.77;100539.70;124649;1105;103162;-77
2023/11/17 08:47:43;;;;;;;34.60;17.95;;;;;;;5.39;76.69;100542.66;124683;1105;102457;-80
2023/11/17 08:50:15;;;;;;;33.83;17.67;;;;;;;5.51;76.73;100550.28;124788;1105;104220;-77
2023/11/17 08:52:49;;;;;;;29.13;16.07;;;;;;;5.63;76.92;100547.49;124796;1105;104229;-79
2023/11/17 08:55:27;;;;;;;30.27;15.23;;;;;;;5.72;76.84;100533.27;124646;1105;104255;-79
2023/11/17 09:00:59;;;;;;;29.13;15.43;;;;;;;5.90;76.35;100525.56;124641;1105;107271;-78
2023/11/17 09:04:05;;;;;;;28.43;15.23;;;;;;;5.96;76.19;100514.59;124730;1105;102577;-78
2023/11/17 09:06:37;;;;;;;28.27;15.00;;;;;;;6.01;75.89;100510.55;125085;1109;102298;-77
2023/11/17 09:09:18;;;;;;;28.20;14.30;;;;;;;6.06;76.03;100502.98;125448;1104;102499;-77
2023/11/17 09:12:04;;;;;;;27.43;14.13;;;;;;;6.07;75.63;100495.25;125318;1106;103500;-80
2023/11/17 09:14:47;;;;;;;;;;;;;;;;;;;;;
2023/11/17 09:17:47;;;;;;;26.33;14.47;;;;;;;6.04;75.87;100486.39;125483;1104;104064;-77
2023/11/17 09:20:23;;;;;;;30.37;14.53;;;;;;;6.08;75.54;100486.64;125389;1105;102007;-78
2023/11/17 09:22:55;;;;;;;25.70;14.00;;;;;;;6.13;75.64;100485.99;124771;1105;102282;-78
2023/11/17 09:25:30;;;;;;;26.20;13.73;;;;;;;6.16;75.60;100483.55;124749;1105;104277;-78
2023/11/17 09:28:06;;;;;;;29.10;14.50;;;;;;;6.22;75.50;100474.34;125018;1105;104454;-78
2023/11/17 09:30:37;;;;;;;;;;;;;;;6.29;75.12;100470.34;125230;1105;102198;-78
2023/11/17 09:33:09;;;;;;;28.75;13.85;;;;;;;6.36;75.62;100474.15;124864;1105;102375;-79
2023/11/17 09:35:41;;;;;;;31.00;14.93;;;;;;;6.45;75.38;100467.73;125343;1105;102621;-81
2023/11/17 09:38:17;;;;;;;29.20;14.43;;;;;;;6.58;75.56;100468.36;125466;1105;104140;-82
2023/11/17 09:40:54;;;;;;;26.27;13.53;;;;;;;6.73;75.48;100457.80;125314;1105;102379;-82
2023/11/17 09:43:32;;;;;;;30.30;13.70;;;;;;;6.80;75.13;100457.30;124769;1105;103412;-81
2023/11/17 09:46:06;;;;;;;28.00;13.10;;;;;;;6.90;75.41;100450.81;124829;1105;104224;-80
2023/11/17 09:48:43;;;;;;;25.60;12.90;;;;;;;7.00;75.13;100443.52;124765;1105;102750;-78
2023/11/17 09:51:19;;;;;;;22.00;10.93;;;;;;;7.10;74.94;100443.97;124781;1105;104285;-80
2023/11/17 09:53:52;;;;;;;25.03;11.63;;;;;;;7.15;74.81;100432.03;124710;1104;104389;-81
2023/11/17 09:56:26;;;;;;;22.20;11.17;;;;;;;7.18;74.90;100438.31;125373;1105;104280;-77
2023/11/17 09:59:03;;;;;;;25.02;11.60;;;;;;;7.18;74.63;100432.17;124756;1105;102968;-81
2023/11/17 10:01:49;;;;;;;23.33;11.57;;;;;;;7.21;74.55;100421.89;124633;1104;104223;-80
2023/11/17 10:04:24;;;;;;;20.77;10.73;;;;;;;7.20;73.81;100415.78;124744;1105;102671;-78
2023/11/17 10:07:16;;;;;;;20.83;9.43;;;;;;;7.17;74.27;100410.42;125922;1104;102554;-77
2023/11/17 10:09:59;;;;;;;20.30;9.90;;;;;;;7.19;73.84;100400.94;125915;1105;101971;-80
2023/11/17 10:12:35;;;;;;;19.57;9.23;;;;;;;7.17;73.75;100384.33;124867;1105;111118;-82
2023/11/17 10:15:12;;;;;;;20.80;9.03;;;;;;;7.19;73.55;100385.28;125265;1105;102156;-79
2023/11/17 10:17:52;;;;;;;18.53;8.77;;;;;;;7.22;73.20;100375.83;124608;1105;104223;-79
2023/11/17 10:20:31;;;;;;;17.97;8.93;;;;;;;7.25;73.77;100376.86;125251;1105;103135;-79
2023/11/17 10:23:16;;;;;;;16.97;8.77;;;;;;;7.31;73.54;100371.04;124639;1105;102707;-83
2023/11/17 10:26:09;;;;;;;21.07;9.23;;;;;;;7.35;73.54;100370.34;125355;1105;102986;-79
2023/11/17 10:28:59;;;;;;;19.67;8.93;;;;;;;7.35;72.96;100363.42;124837;1105;102283;-81
2023/11/17 10:31:37;;;;;;;19.03;8.53;;;;;;;7.37;72.72;100368.72;124904;1105;104358;-81
2023/11/17 10:34:20;;;;;;;18.37;9.10;;;;;;;7.36;72.88;100375.63;125360;1105;104217;-77
2023/11/17 10:36:59;;;;;;;19.63;9.27;;;;;;;7.36;72.70;100374.75;124651;1105;102366;-80
2023/11/17 10:39:54;;;;;;;17.97;8.70;;;;;;;7.35;72.87;100367.73;125304;1105;102953;-78
2023/11/17 10:42:32;;;;;;;20.23;9.40;;;;;;;7.38;72.36;100367.88;124685;1106;102986;-77
2023/11/17 10:45:18;;;;;;;18.73;8.97;;;;;;;7.41;72.86;100361.91;124623;1105;104815;-78
2023/11/17 10:47:54;;;;;;;18.40;9.40;;;;;;;7.39;72.73;100361.84;124655;1106;104323;-76
2023/11/17 10:51:11;;;;;;;20.00;9.30;;;;;;;7.41;72.31;100348.86;124769;1105;103484;-77
2023/11/17 10:53:42;;;;;;;18.80;8.73;;;;;;;7.47;72.15;100342.19;124656;1105;112911;-78
2023/11/17 10:56:27;;;;;;;18.50;8.83;;;;;;;7.53;72.68;100342.47;124827;1105;102463;-77
2023/11/17 10:58:59;;;;;;;20.97;10.10;;;;;;;7.56;71.73;100340.00;124797;1105;102529;-76
2023/11/17 11:01:35;;;;;;;19.40;10.07;;;;;;;7.58;71.88;100337.45;124774;1105;104188;-78
2023/11/17 11:04:14;;;;;;;20.40;9.80;;;;;;;7.63;72.37;100338.55;124512;1105;104169;-78
2023/11/17 11:06:46;;;;;;;22.87;10.17;;;;;;;7.70;72.36;100334.52;125380;1105;103198;-78
2023/11/17 11:09:23;;;;;;;20.37;10.00;;;;;;;7.74;72.14;100341.64;125386;1105;102957;-77
2023/11/17 11:11:55;;;;;;;21.87;10.03;;;;;;;7.73;72.03;100330.31;124676;1105;102518;-77
2023/11/17 11:14:29;;;;;;;19.80;9.30;;;;;;;7.74;71.97;100321.66;124644;1105;104077;-79
2023/11/17 11:17:03;;;;;;;19.47;10.17;;;;;;;7.77;71.69;100320.00;124558;1106;104223;-78
2023/11/17 11:19:38;;;;;;;21.10;10.13;;;;;;;7.80;72.17;100320.13;124630;1105;104378;-78
2023/11/17 11:22:12;;;;;;;20.48;10.08;;;;;;;7.78;71.43;100317.45;124615;1105;102468;-81
2023/11/17 11:24:45;;;;;;;21.90;10.40;;;;;;;7.78;72.12;100312.23;124749;1105;104210;-80
2023/11/17 11:27:18;;;;;;;21.53;11.57;;;;;;;7.76;71.56;100305.14;125865;1105;104361;-80
2023/11/17 11:29:57;;;;;;;23.03;10.60;;;;;;;7.79;71.47;100298.36;124479;1105;104348;-82
2023/11/17 11:32:31;;;;;;;21.30;11.43;;;;;;;7.84;71.66;100303.78;124520;1105;102569;-80
2023/11/17 11:35:01;;;;;;;;;;;;;;;7.86;71.79;100291.66;124587;1105;104254;-79
2023/11/17 11:37:34;;;;;;;21.40;10.80;;;;;;;7.90;71.31;100290.98;124704;1105;102370;-78
2023/11/17 11:40:12;;;;;;;21.63;9.70;;;;;;;7.94;71.33;100297.22;124554;1105;104247;-77
2023/11/17 11:42:51;;;;;;;20.87;10.33;;;;;;;7.95;71.66;100285.92;124521;1105;104246;-78
2023/11/17 11:45:26;;;;;;;21.87;9.97;;;;;;;7.96;71.28;100285.98;124552;1106;104468;-78
2023/11/17 11:48:00;;;;;;;20.40;9.60;;;;;;;7.96;71.60;100293.83;124467;1105;104255;-77